sensor_id;sensor_type;location;lat;lon;timestamp;temperature;humidity
21502;DHT22;27639;48.674;9.242;2023-11-18T00:02:23;9.20;64.20
21502;DHT22;27639;48.674;9.242;2023-11-18T00:04:50;9.30;64.30
21502;DHT22;27639;48.674;9.242;2023-11-18T00:07:15;9.30;64.30
21502;DHT22;27639;48.674;9.242;2023-11-18T00:09:41;9.30;64.20
21502;DHT22;27639;48.674;9.242;2023-11-18T00:12:11;9.30;64.30
21502;DHT22;27639;48.674;9.242;2023-11-18T00:14:37;9.30;64.40
21502;DHT22;27639;48.674;9.242;2023-11-18T00:17:03;9.30;64.40
21502;DHT22;27639;48.674;9.242;2023-11-18T00:19:29;9.30;65.10
21502;DHT22;27639;48.674;9.242;2023-11-18T00:21:55;9.30;64.40
21502;DHT22;27639;48.674;9.242;2023-11-18T00:24:21;9.30;64.30
21502;DHT22;27639;48.674;9.242;2023-11-18T00:26:46;9.30;64.40
21502;DHT22;27639;48.674;9.242;2023-11-18T00:29:12;9.30;64.40
21502;DHT22;27639;48.674;9.242;2023-11-18T00:31:38;9.30;64.40
21502;DHT22;27639;48.674;9.242;2023-11-18T00:34:04;9.30;64.40
21502;DHT22;27639;48.674;9.242;2023-11-18T00:36:29;9.30;64.40
21502;DHT22;27639;48.674;9.242;2023-11-18T00:38:55;9.30;64.40
21502;DHT22;27639;48.674;9.242;2023-11-18T00:41:20;9.30;64.40
21502;DHT22;27639;48.674;9.242;2023-11-18T00:43:46;9.30;64.40
21502;DHT22;27639;48.674;9.242;2023-11-18T00:46:12;9.30;64.40
21502;DHT22;27639;48.674;9.242;2023-11-18T00:48:38;9.30;64.40
21502;DHT22;27639;48.674;9.242;2023-11-18T00:51:05;9.40;64.50
21502;DHT22;27639;48.674;9.242;2023-11-18T00:53:31;9.40;64.50
21502;DHT22;27639;48.674;9.242;2023-11-18T00:55:56;9.40;64.50
21502;DHT22;27639;48.674;9.242;2023-11-18T00:58:22;9.40;64.40
21502;DHT22;27639;48.674;9.242;2023-11-18T01:00:48;9.40;64.40
21502;DHT22;27639;48.674;9.242;2023-11-18T01:03:13;9.40;64.50
21502;DHT22;27639;48.674;9.242;2023-11-18T01:05:39;9.40;64.50
21502;DHT22;27639;48.674;9.242;2023-11-18T01:08:04;9.40;64.50
21502;DHT22;27639;48.674;9.242;2023-11-18T01:10:30;9.40;64.50
21502;DHT22;27639;48.674;9.242;2023-11-18T01:12:56;9.50;65.40
21502;DHT22;27639;48.674;9.242;2023-11-18T01:15:23;9.50;64.50
21502;DHT22;27639;48.674;9.242;2023-11-18T01:17:49;9.50;64.40
21502;DHT22;27639;48.674;9.242;2023-11-18T01:20:15;9.50;64.40
21502;DHT22;27639;48.674;9.242;2023-11-18T01:22:46;9.50;64.30
21502;DHT22;27639;48.674;9.242;2023-11-18T01:25:12;9.60;64.40
21502;DHT22;27639;48.674;9.242;2023-11-18T01:27:38;9.50;64.20
21502;DHT22;27639;48.674;9.242;2023-11-18T01:30:03;9.50;64.20
21502;DHT22;27639;48.674;9.242;2023-11-18T01:32:30;9.50;64.30
21502;DHT22;27639;48.674;9.242;2023-11-18T01:34:56;9.50;64.20
21502;DHT22;27639;48.674;9.242;2023-11-18T01:37:22;9.50;64.30
21502;DHT22;27639;48.674;9.242;2023-11-18T01:39:49;9.50;64.20
21502;DHT22;27639;48.674;9.242;2023-11-18T01:42:14;9.50;64.20
21502;DHT22;27639;48.674;9.242;2023-11-18T01:44:40;9.40;64.20
21502;DHT22;27639;48.674;9.242;2023-11-18T01:47:07;9.40;64.30
21502;DHT22;27639;48.674;9.242;2023-11-18T01:49:37;9.40;64.30
21502;DHT22;27639;48.674;9.242;2023-11-18T01:52:06;9.50;64.40
21502;DHT22;27639;48.674;9.242;2023-11-18T01:54:34;9.50;64.30
21502;DHT22;27639;48.674;9.242;2023-11-18T01:57:00;9.50;64.30
21502;DHT22;27639;48.674;9.242;2023-11-18T01:59:32;9.50;64.20
21502;DHT22;27639;48.674;9.242;2023-11-18T02:01:59;9.50;64.20
21502;DHT22;27639;48.674;9.242;2023-11-18T02:04:25;9.50;64.20
21502;DHT22;27639;48.674;9.242;2023-11-18T02:06:52;9.50;64.20
21502;DHT22;27639;48.674;9.242;2023-11-18T02:09:21;9.50;64.20
21502;DHT22;27639;48.674;9.242;2023-11-18T02:14:39;9.50;64.20
21502;DHT22;27639;48.674;9.242;2023-11-18T02:17:05;9.50;64.20
21502;DHT22;27639;48.674;9.242;2023-11-18T02:19:35;9.50;64.20
21502;DHT22;27639;48.674;9.242;2023-11-18T02:22:01;9.50;64.20
21502;DHT22;27639;48.674;9.242;2023-11-18T02:24:31;9.50;64.10
21502;DHT22;27639;48.674;9.242;2023-11-18T02:27:02;9.50;64.00
21502;DHT22;27639;48.674;9.242;2023-11-18T02:29:37;9.50;64.10
21502;DHT22;27639;48.674;9.242;2023-11-18T02:32:09;9.50;64.10
21502;DHT22;27639;48.674;9.242;2023-11-18T02:34:40;9.30;63.90
21502;DHT22;27639;48.674;9.242;2023-11-18T02:37:09;9.30;64.40
21502;DHT22;27639;48.674;9.242;2023-11-18T02:39:39;9.30;64.40
21502;DHT22;27639;48.674;9.242;2023-11-18T02:42:07;9.30;64.20
21502;DHT22;27639;48.674;9.242;2023-11-18T02:44:36;9.30;64.20
21502;DHT22;27639;48.674;9.242;2023-11-18T02:47:02;9.30;64.20
21502;DHT22;27639;48.674;9.242;2023-11-18T02:49:30;9.30;65.10
21502;DHT22;27639;48.674;9.242;2023-11-18T02:51:56;9.30;64.30
21502;DHT22;27639;48.674;9.242;2023-11-18T02:54:22;9.20;64.30
21502;DHT22;27639;48.674;9.242;2023-11-18T02:56:48;9.30;65.10
21502;DHT22;27639;48.674;9.242;2023-11-18T02:59:15;9.30;64.40
21502;DHT22;27639;48.674;9.242;2023-11-18T03:01:40;9.30;64.40
21502;DHT22;27639;48.674;9.242;2023-11-18T03:04:06;9.40;64.40
21502;DHT22;27639;48.674;9.242;2023-11-18T03:06:33;9.40;64.30
21502;DHT22;27639;48.674;9.242;2023-11-18T03:09:00;9.40;64.20
21502;DHT22;27639;48.674;9.242;2023-11-18T03:11:26;9.40;64.00
21502;DHT22;27639;48.674;9.242;2023-11-18T03:13:55;9.50;63.90
21502;DHT22;27639;48.674;9.242;2023-11-18T03:16:22;9.50;63.70
21502;DHT22;27639;48.674;9.242;2023-11-18T03:18:47;9.50;63.40
21502;DHT22;27639;48.674;9.242;2023-11-18T03:21:13;9.50;63.40
21502;DHT22;27639;48.674;9.242;2023-11-18T03:23:39;9.50;63.30
21502;DHT22;27639;48.674;9.242;2023-11-18T03:26:10;9.40;63.10
21502;DHT22;27639;48.674;9.242;2023-11-18T03:28:37;9.40;63.20
21502;DHT22;27639;48.674;9.242;2023-11-18T03:31:06;9.30;63.20
21502;DHT22;27639;48.674;9.242;2023-11-18T03:33:32;9.30;63.20
21502;DHT22;27639;48.674;9.242;2023-11-18T03:35:58;9.30;63.20
21502;DHT22;27639;48.674;9.242;2023-11-18T03:38:24;9.20;63.90
21502;DHT22;27639;48.674;9.242;2023-11-18T03:40:50;9.10;63.10
21502;DHT22;27639;48.674;9.242;2023-11-18T03:43:18;9.10;63.10
21502;DHT22;27639;48.674;9.242;2023-11-18T03:45:43;9.10;63.40
21502;DHT22;27639;48.674;9.242;2023-11-18T03:48:09;9.00;63.30
21502;DHT22;27639;48.674;9.242;2023-11-18T03:50:40;9.00;63.40
21502;DHT22;27639;48.674;9.242;2023-11-18T03:53:05;8.90;63.60
21502;DHT22;27639;48.674;9.242;2023-11-18T03:55:31;8.90;63.80
21502;DHT22;27639;48.674;9.242;2023-11-18T03:57:57;8.90;63.80
21502;DHT22;27639;48.674;9.242;2023-11-18T04:00:23;8.90;63.80
21502;DHT22;27639;48.674;9.242;2023-11-18T04:02:59;8.90;63.80
21502;DHT22;27639;48.674;9.242;2023-11-18T04:05:25;8.90;63.60
21502;DHT22;27639;48.674;9.242;2023-11-18T04:07:50;8.90;63.60
21502;DHT22;27639;48.674;9.242;2023-11-18T04:10:17;8.90;63.60
21502;DHT22;27639;48.674;9.242;2023-11-18T04:12:43;8.90;63.70
21502;DHT22;27639;48.674;9.242;2023-11-18T04:15:12;8.90;63.80
21502;DHT22;27639;48.674;9.242;2023-11-18T04:17:38;8.90;63.80
21502;DHT22;27639;48.674;9.242;2023-11-18T04:20:04;8.90;63.90
21502;DHT22;27639;48.674;9.242;2023-11-18T04:22:41;8.90;64.00
21502;DHT22;27639;48.674;9.242;2023-11-18T04:25:10;8.90;64.00
21502;DHT22;27639;48.674;9.242;2023-11-18T04:27:40;8.90;64.00
21502;DHT22;27639;48.674;9.242;2023-11-18T04:30:06;8.90;64.00
21502;DHT22;27639;48.674;9.242;2023-11-18T04:32:34;8.80;63.90
21502;DHT22;27639;48.674;9.242;2023-11-18T04:35:00;8.80;63.90
21502;DHT22;27639;48.674;9.242;2023-11-18T04:37:34;8.80;63.80
21502;DHT22;27639;48.674;9.242;2023-11-18T04:40:01;8.80;63.90
21502;DHT22;27639;48.674;9.242;2023-11-18T04:42:27;8.70;64.00
21502;DHT22;27639;48.674;9.242;2023-11-18T04:44:57;8.70;64.00
21502;DHT22;27639;48.674;9.242;2023-11-18T04:47:23;8.70;64.00
21502;DHT22;27639;48.674;9.242;2023-11-18T04:49:50;8.70;64.00
21502;DHT22;27639;48.674;9.242;2023-11-18T04:52:17;8.70;64.20
21502;DHT22;27639;48.674;9.242;2023-11-18T04:54:42;8.70;64.20
21502;DHT22;27639;48.674;9.242;2023-11-18T04:57:08;8.70;64.30
21502;DHT22;27639;48.674;9.242;2023-11-18T04:59:34;8.70;64.30
21502;DHT22;27639;48.674;9.242;2023-11-18T05:02:00;8.70;64.30
21502;DHT22;27639;48.674;9.242;2023-11-18T05:04:27;8.80;64.40
21502;DHT22;27639;48.674;9.242;2023-11-18T05:06:53;8.80;64.50
21502;DHT22;27639;48.674;9.242;2023-11-18T05:09:19;8.80;64.60
21502;DHT22;27639;48.674;9.242;2023-11-18T05:11:44;8.80;64.50
21502;DHT22;27639;48.674;9.242;2023-11-18T05:14:10;8.80;64.60
21502;DHT22;27639;48.674;9.242;2023-11-18T05:16:36;8.80;64.50
21502;DHT22;27639;48.674;9.242;2023-11-18T05:19:02;8.90;64.40
21502;DHT22;27639;48.674;9.242;2023-11-18T05:21:28;8.90;64.90
21502;DHT22;27639;48.674;9.242;2023-11-18T05:23:54;8.90;64.20
21502;DHT22;27639;48.674;9.242;2023-11-18T05:26:20;8.90;64.00
21502;DHT22;27639;48.674;9.242;2023-11-18T05:28:45;9.00;64.10
21502;DHT22;27639;48.674;9.242;2023-11-18T05:31:11;9.00;64.00
21502;DHT22;27639;48.674;9.242;2023-11-18T05:33:37;9.00;63.90
21502;DHT22;27639;48.674;9.242;2023-11-18T05:36:03;9.00;63.90
21502;DHT22;27639;48.674;9.242;2023-11-18T05:38:30;9.00;63.80
21502;DHT22;27639;48.674;9.242;2023-11-18T05:41:00;9.00;63.60
21502;DHT22;27639;48.674;9.242;2023-11-18T05:43:30;9.00;63.60
21502;DHT22;27639;48.674;9.242;2023-11-18T05:46:02;9.00;63.70
21502;DHT22;27639;48.674;9.242;2023-11-18T05:48:45;9.00;63.60
21502;DHT22;27639;48.674;9.242;2023-11-18T05:51:11;9.00;63.70
21502;DHT22;27639;48.674;9.242;2023-11-18T05:53:43;9.00;63.50
21502;DHT22;27639;48.674;9.242;2023-11-18T05:56:15;9.00;63.40
21502;DHT22;27639;48.674;9.242;2023-11-18T05:58:44;8.90;63.50
21502;DHT22;27639;48.674;9.242;2023-11-18T06:01:11;8.90;63.50
21502;DHT22;27639;48.674;9.242;2023-11-18T06:03:38;8.90;63.60
21502;DHT22;27639;48.674;9.242;2023-11-18T06:06:08;8.90;63.50
21502;DHT22;27639;48.674;9.242;2023-11-18T06:08:34;8.90;63.60
21502;DHT22;27639;48.674;9.242;2023-11-18T06:11:00;8.90;63.60
21502;DHT22;27639;48.674;9.242;2023-11-18T06:13:30;8.80;63.50
21502;DHT22;27639;48.674;9.242;2023-11-18T06:15:56;8.80;63.60
21502;DHT22;27639;48.674;9.242;2023-11-18T06:18:24;8.80;63.60
21502;DHT22;27639;48.674;9.242;2023-11-18T06:20:49;8.80;63.60
21502;DHT22;27639;48.674;9.242;2023-11-18T06:23:15;8.70;63.40
21502;DHT22;27639;48.674;9.242;2023-11-18T06:25:44;8.70;63.60
21502;DHT22;27639;48.674;9.242;2023-11-18T06:28:11;8.70;63.70
21502;DHT22;27639;48.674;9.242;2023-11-18T06:30:36;8.70;63.80
21502;DHT22;27639;48.674;9.242;2023-11-18T06:33:04;8.60;63.80
21502;DHT22;27639;48.674;9.242;2023-11-18T06:35:29;8.60;63.90
21502;DHT22;27639;48.674;9.242;2023-11-18T06:37:55;8.60;64.20
21502;DHT22;27639;48.674;9.242;2023-11-18T06:40:21;8.60;64.30
21502;DHT22;27639;48.674;9.242;2023-11-18T06:42:47;8.60;64.30
21502;DHT22;27639;48.674;9.242;2023-11-18T06:45:13;8.70;64.50
21502;DHT22;27639;48.674;9.242;2023-11-18T06:47:40;8.70;64.50
21502;DHT22;27639;48.674;9.242;2023-11-18T06:50:10;8.70;64.60
21502;DHT22;27639;48.674;9.242;2023-11-18T06:52:40;8.70;64.60
21502;DHT22;27639;48.674;9.242;2023-11-18T06:55:07;8.70;64.50
21502;DHT22;27639;48.674;9.242;2023-11-18T06:57:33;8.80;64.60
21502;DHT22;27639;48.674;9.242;2023-11-18T06:59:58;8.80;64.60
21502;DHT22;27639;48.674;9.242;2023-11-18T07:02:24;8.80;64.60
21502;DHT22;27639;48.674;9.242;2023-11-18T07:04:49;8.80;64.60
21502;DHT22;27639;48.674;9.242;2023-11-18T07:07:15;8.80;64.60
21502;DHT22;27639;48.674;9.242;2023-11-18T07:09:42;8.80;64.60
21502;DHT22;27639;48.674;9.242;2023-11-18T07:12:10;8.80;64.60
21502;DHT22;27639;48.674;9.242;2023-11-18T07:14:35;8.80;64.60
21502;DHT22;27639;48.674;9.242;2023-11-18T07:17:01;8.90;64.80
21502;DHT22;27639;48.674;9.242;2023-11-18T07:19:26;8.90;64.90
21502;DHT22;27639;48.674;9.242;2023-11-18T07:21:54;8.90;64.90
21502;DHT22;27639;48.674;9.242;2023-11-18T07:24:19;9.00;65.00
21502;DHT22;27639;48.674;9.242;2023-11-18T07:26:45;8.90;64.90
21502;DHT22;27639;48.674;9.242;2023-11-18T07:29:11;9.00;64.90
21502;DHT22;27639;48.674;9.242;2023-11-18T07:31:37;9.00;64.90
21502;DHT22;27639;48.674;9.242;2023-11-18T07:34:05;9.10;65.00
21502;DHT22;27639;48.674;9.242;2023-11-18T07:36:31;9.10;64.90
21502;DHT22;27639;48.674;9.242;2023-11-18T07:38:57;9.10;64.90
21502;DHT22;27639;48.674;9.242;2023-11-18T07:41:26;9.10;64.80
21502;DHT22;27639;48.674;9.242;2023-11-18T07:43:55;9.20;64.80
21502;DHT22;27639;48.674;9.242;2023-11-18T07:46:24;9.20;64.80
21502;DHT22;27639;48.674;9.242;2023-11-18T07:48:51;9.30;64.80
21502;DHT22;27639;48.674;9.242;2023-11-18T07:51:21;9.30;64.50
21502;DHT22;27639;48.674;9.242;2023-11-18T07:53:48;9.40;64.30
21502;DHT22;27639;48.674;9.242;2023-11-18T07:56:14;9.40;64.20
21502;DHT22;27639;48.674;9.242;2023-11-18T07:58:42;9.50;64.20
21502;DHT22;27639;48.674;9.242;2023-11-18T08:01:14;9.50;63.90
21502;DHT22;27639;48.674;9.242;2023-11-18T08:03:42;9.60;64.00
21502;DHT22;27639;48.674;9.242;2023-11-18T08:06:08;9.50;63.90
21502;DHT22;27639;48.674;9.242;2023-11-18T08:08:34;9.60;63.80
21502;DHT22;27639;48.674;9.242;2023-11-18T08:11:01;9.60;63.70
21502;DHT22;27639;48.674;9.242;2023-11-18T08:13:27;9.60;63.60
21502;DHT22;27639;48.674;9.242;2023-11-18T08:15:52;9.60;63.60
21502;DHT22;27639;48.674;9.242;2023-11-18T08:18:18;9.60;63.40
21502;DHT22;27639;48.674;9.242;2023-11-18T08:21:14;9.60;63.10
21502;DHT22;27639;48.674;9.242;2023-11-18T08:23:40;9.60;62.70
21502;DHT22;27639;48.674;9.242;2023-11-18T08:26:05;9.60;63.00
21502;DHT22;27639;48.674;9.242;2023-11-18T08:28:31;9.60;63.00
21502;DHT22;27639;48.674;9.242;2023-11-18T08:30:57;9.70;63.00
21502;DHT22;27639;48.674;9.242;2023-11-18T08:33:22;9.70;62.60
21502;DHT22;27639;48.674;9.242;2023-11-18T08:35:51;9.70;62.60
21502;DHT22;27639;48.674;9.242;2023-11-18T08:38:16;9.70;62.60
21502;DHT22;27639;48.674;9.242;2023-11-18T08:40:43;9.70;62.60
21502;DHT22;27639;48.674;9.242;2023-11-18T08:43:10;9.80;62.70
21502;DHT22;27639;48.674;9.242;2023-11-18T08:45:36;9.80;62.60
21502;DHT22;27639;48.674;9.242;2023-11-18T08:48:03;9.80;62.20
21502;DHT22;27639;48.674;9.242;2023-11-18T08:50:33;9.80;62.20
21502;DHT22;27639;48.674;9.242;2023-11-18T08:52:59;9.80;62.20
21502;DHT22;27639;48.674;9.242;2023-11-18T08:55:28;9.80;62.10
21502;DHT22;27639;48.674;9.242;2023-11-18T08:58:07;9.90;62.10
21502;DHT22;27639;48.674;9.242;2023-11-18T09:00:52;9.90;62.10
21502;DHT22;27639;48.674;9.242;2023-11-18T09:03:19;9.80;61.80
21502;DHT22;27639;48.674;9.242;2023-11-18T09:05:57;9.90;61.90
21502;DHT22;27639;48.674;9.242;2023-11-18T09:10:50;10.00;60.90
21502;DHT22;27639;48.674;9.242;2023-11-18T09:13:23;10.10;61.00
21502;DHT22;27639;48.674;9.242;2023-11-18T09:15:59;10.10;61.00
21502;DHT22;27639;48.674;9.242;2023-11-18T09:18:26;10.10;60.60
21502;DHT22;27639;48.674;9.242;2023-11-18T09:20:53;10.10;60.60
21502;DHT22;27639;48.674;9.242;2023-11-18T09:23:21;10.20;60.40
21502;DHT22;27639;48.674;9.242;2023-11-18T09:25:49;10.20;60.20
21502;DHT22;27639;48.674;9.242;2023-11-18T09:28:15;10.30;60.10
21502;DHT22;27639;48.674;9.242;2023-11-18T09:30:42;10.40;60.00
21502;DHT22;27639;48.674;9.242;2023-11-18T09:33:16;10.50;60.00
21502;DHT22;27639;48.674;9.242;2023-11-18T09:36:12;10.40;60.00
21502;DHT22;27639;48.674;9.242;2023-11-18T09:38:41;10.50;59.90
21502;DHT22;27639;48.674;9.242;2023-11-18T09:41:10;10.60;59.70
21502;DHT22;27639;48.674;9.242;2023-11-18T09:43:43;10.70;59.60
21502;DHT22;27639;48.674;9.242;2023-11-18T09:46:16;10.70;59.40
21502;DHT22;27639;48.674;9.242;2023-11-18T09:51:14;10.80;59.30
21502;DHT22;27639;48.674;9.242;2023-11-18T09:53:44;10.90;59.50
21502;DHT22;27639;48.674;9.242;2023-11-18T09:56:19;10.90;59.20
21502;DHT22;27639;48.674;9.242;2023-11-18T09:59:10;10.90;58.90
21502;DHT22;27639;48.674;9.242;2023-11-18T10:01:42;11.00;58.90
21502;DHT22;27639;48.674;9.242;2023-11-18T10:04:09;11.10;58.80
21502;DHT22;27639;48.674;9.242;2023-11-18T10:06:36;11.10;58.80
21502;DHT22;27639;48.674;9.242;2023-11-18T10:09:06;11.10;58.70
21502;DHT22;27639;48.674;9.242;2023-11-18T10:11:47;11.20;58.90
21502;DHT22;27639;48.674;9.242;2023-11-18T10:14:16;11.20;58.50
21502;DHT22;27639;48.674;9.242;2023-11-18T10:16:45;11.20;58.40
21502;DHT22;27639;48.674;9.242;2023-11-18T10:19:14;11.20;58.40
21502;DHT22;27639;48.674;9.242;2023-11-18T10:21:43;11.30;58.30
21502;DHT22;27639;48.674;9.242;2023-11-18T10:24:08;11.30;58.10
21502;DHT22;27639;48.674;9.242;2023-11-18T10:26:43;11.40;57.90
21502;DHT22;27639;48.674;9.242;2023-11-18T10:29:11;11.40;57.80
21502;DHT22;27639;48.674;9.242;2023-11-18T10:31:38;11.40;57.40
21502;DHT22;27639;48.674;9.242;2023-11-18T10:34:11;11.40;56.80
21502;DHT22;27639;48.674;9.242;2023-11-18T10:36:36;11.40;57.30
21502;DHT22;27639;48.674;9.242;2023-11-18T10:39:03;11.50;57.40
21502;DHT22;27639;48.674;9.242;2023-11-18T10:41:41;11.60;57.60
21502;DHT22;27639;48.674;9.242;2023-11-18T10:44:08;11.60;57.30
21502;DHT22;27639;48.674;9.242;2023-11-18T10:46:40;11.60;57.40
21502;DHT22;27639;48.674;9.242;2023-11-18T10:49:06;11.60;57.40
21502;DHT22;27639;48.674;9.242;2023-11-18T10:51:35;11.60;57.40
21502;DHT22;27639;48.674;9.242;2023-11-18T10:54:04;11.70;57.60
21502;DHT22;27639;48.674;9.242;2023-11-18T10:56:32;11.70;57.40
21502;DHT22;27639;48.674;9.242;2023-11-18T10:59:07;11.70;57.20
21502;DHT22;27639;48.674;9.242;2023-11-18T11:01:37;11.70;56.80
21502;DHT22;27639;48.674;9.242;2023-11-18T11:04:08;11.60;56.80
21502;DHT22;27639;48.674;9.242;2023-11-18T11:06:40;11.70;57.00
21502;DHT22;27639;48.674;9.242;2023-11-18T11:09:07;11.70;57.10
21502;DHT22;27639;48.674;9.242;2023-11-18T11:11:49;11.60;57.10
21502;DHT22;27639;48.674;9.242;2023-11-18T11:14:21;11.70;57.00
21502;DHT22;27639;48.674;9.242;2023-11-18T11:16:54;11.80;57.30
21502;DHT22;27639;48.674;9.242;2023-11-18T11:19:34;11.80;57.20
21502;DHT22;27639;48.674;9.242;2023-11-18T11:22:10;11.80;57.40
21502;DHT22;27639;48.674;9.242;2023-11-18T11:27:21;11.90;56.80
21502;DHT22;27639;48.674;9.242;2023-11-18T11:30:05;11.90;56.60
21502;DHT22;27639;48.674;9.242;2023-11-18T11:32:51;11.90;56.60
21502;DHT22;27639;48.674;9.242;2023-11-18T11:35:23;11.90;56.70
21502;DHT22;27639;48.674;9.242;2023-11-18T11:37:49;12.00;56.70
21502;DHT22;27639;48.674;9.242;2023-11-18T11:40:15;12.00;56.70
21502;DHT22;27639;48.674;9.242;2023-11-18T11:42:49;12.00;56.60
21502;DHT22;27639;48.674;9.242;2023-11-18T11:45:21;12.10;56.70
21502;DHT22;27639;48.674;9.242;2023-11-18T11:47:51;12.10;56.50
21502;DHT22;27639;48.674;9.242;2023-11-18T11:50:25;12.20;56.50
21502;DHT22;27639;48.674;9.242;2023-11-18T11:53:07;12.20;56.50
21502;DHT22;27639;48.674;9.242;2023-11-18T11:55:47;12.20;56.40
21502;DHT22;27639;48.674;9.242;2023-11-18T11:58:30;12.20;56.30
21502;DHT22;27639;48.674;9.242;2023-11-18T12:01:14;12.20;56.10
21502;DHT22;27639;48.674;9.242;2023-11-18T12:03:43;12.20;56.20
21502;DHT22;27639;48.674;9.242;2023-11-18T12:06:22;12.30;56.30
21502;DHT22;27639;48.674;9.242;2023-11-18T12:08:51;12.30;56.10
21502;DHT22;27639;48.674;9.242;2023-11-18T12:11:18;12.30;56.20
21502;DHT22;27639;48.674;9.242;2023-11-18T12:14:15;12.30;55.90
21502;DHT22;27639;48.674;9.242;2023-11-18T12:19:47;12.30;55.80
21502;DHT22;27639;48.674;9.242;2023-11-18T12:22:22;12.20;55.80
21502;DHT22;27639;48.674;9.242;2023-11-18T12:33:06;12.30;55.70
21502;DHT22;27639;48.674;9.242;2023-11-18T12:40:56;12.20;55.40
21502;DHT22;27639;48.674;9.242;2023-11-18T12:47:02;12.20;55.20
21502;DHT22;27639;48.674;9.242;2023-11-18T12:49:38;12.20;55.60
21502;DHT22;27639;48.674;9.242;2023-11-18T12:52:07;12.20;55.50
21502;DHT22;27639;48.674;9.242;2023-11-18T12:54:34;12.20;55.50
21502;DHT22;27639;48.674;9.242;2023-11-18T12:57:05;12.30;55.70
21502;DHT22;27639;48.674;9.242;2023-11-18T12:59:37;12.30;55.70
21502;DHT22;27639;48.674;9.242;2023-11-18T13:02:09;12.40;55.80
21502;DHT22;27639;48.674;9.242;2023-11-18T13:04:40;12.40;55.80
21502;DHT22;27639;48.674;9.242;2023-11-18T13:07:06;12.40;55.80
21502;DHT22;27639;48.674;9.242;2023-11-18T13:09:34;12.30;55.90
21502;DHT22;27639;48.674;9.242;2023-11-18T13:12:02;12.30;56.00
21502;DHT22;27639;48.674;9.242;2023-11-18T13:14:32;12.40;56.10
21502;DHT22;27639;48.674;9.242;2023-11-18T13:17:08;12.40;56.20
21502;DHT22;27639;48.674;9.242;2023-11-18T13:19:34;12.30;56.30
21502;DHT22;27639;48.674;9.242;2023-11-18T13:22:04;12.30;56.30
21502;DHT22;27639;48.674;9.242;2023-11-18T13:24:33;12.30;56.40
21502;DHT22;27639;48.674;9.242;2023-11-18T13:27:00;12.30;56.50
21502;DHT22;27639;48.674;9.242;2023-11-18T13:29:30;12.30;56.60
21502;DHT22;27639;48.674;9.242;2023-11-18T13:31:57;12.30;56.60
21502;DHT22;27639;48.674;9.242;2023-11-18T13:34:25;12.30;56.80
21502;DHT22;27639;48.674;9.242;2023-11-18T13:36:52;12.30;56.90
21502;DHT22;27639;48.674;9.242;2023-11-18T13:39:19;12.30;56.90
21502;DHT22;27639;48.674;9.242;2023-11-18T13:41:48;12.30;57.00
21502;DHT22;27639;48.674;9.242;2023-11-18T13:44:31;12.30;56.90
21502;DHT22;27639;48.674;9.242;2023-11-18T13:46:59;12.20;56.60
21502;DHT22;27639;48.674;9.242;2023-11-18T13:49:28;12.20;56.80
21502;DHT22;27639;48.674;9.242;2023-11-18T13:51:55;12.20;56.80
21502;DHT22;27639;48.674;9.242;2023-11-18T13:54:21;12.10;56.80
21502;DHT22;27639;48.674;9.242;2023-11-18T13:56:49;12.10;56.80
21502;DHT22;27639;48.674;9.242;2023-11-18T13:59:15;12.10;56.90
21502;DHT22;27639;48.674;9.242;2023-11-18T14:01:40;12.20;56.90
21502;DHT22;27639;48.674;9.242;2023-11-18T14:04:07;12.20;56.90
21502;DHT22;27639;48.674;9.242;2023-11-18T14:06:35;12.10;56.90
21502;DHT22;27639;48.674;9.242;2023-11-18T14:09:02;12.10;57.00
21502;DHT22;27639;48.674;9.242;2023-11-18T14:11:30;12.10;57.00
21502;DHT22;27639;48.674;9.242;2023-11-18T14:13:56;12.10;57.00
21502;DHT22;27639;48.674;9.242;2023-11-18T14:16:23;12.00;57.10
21502;DHT22;27639;48.674;9.242;2023-11-18T14:18:49;12.00;57.20
21502;DHT22;27639;48.674;9.242;2023-11-18T14:21:15;11.90;57.20
21502;DHT22;27639;48.674;9.242;2023-11-18T14:23:40;11.90;57.20
21502;DHT22;27639;48.674;9.242;2023-11-18T14:26:07;11.90;57.30
21502;DHT22;27639;48.674;9.242;2023-11-18T14:28:36;12.00;57.30
21502;DHT22;27639;48.674;9.242;2023-11-18T14:31:02;12.00;57.30
21502;DHT22;27639;48.674;9.242;2023-11-18T14:33:33;11.90;57.20
21502;DHT22;27639;48.674;9.242;2023-11-18T14:35:59;11.80;57.40
21502;DHT22;27639;48.674;9.242;2023-11-18T14:38:26;11.80;57.50
21502;DHT22;27639;48.674;9.242;2023-11-18T14:40:52;11.80;57.50
21502;DHT22;27639;48.674;9.242;2023-11-18T14:43:19;11.90;57.60
21502;DHT22;27639;48.674;9.242;2023-11-18T14:45:44;11.90;57.40
21502;DHT22;27639;48.674;9.242;2023-11-18T14:48:10;11.90;57.20
21502;DHT22;27639;48.674;9.242;2023-11-18T14:50:36;11.90;57.20
21502;DHT22;27639;48.674;9.242;2023-11-18T14:53:01;11.90;57.00
21502;DHT22;27639;48.674;9.242;2023-11-18T14:55:29;11.90;56.90
21502;DHT22;27639;48.674;9.242;2023-11-18T14:57:55;11.90;56.80
21502;DHT22;27639;48.674;9.242;2023-11-18T15:00:21;11.90;56.70
21502;DHT22;27639;48.674;9.242;2023-11-18T15:02:50;11.90;56.80
21502;DHT22;27639;48.674;9.242;2023-11-18T15:05:17;11.90;56.90
21502;DHT22;27639;48.674;9.242;2023-11-18T15:07:46;11.90;56.90
21502;DHT22;27639;48.674;9.242;2023-11-18T15:10:20;11.80;56.80
21502;DHT22;27639;48.674;9.242;2023-11-18T15:12:52;11.80;56.80
21502;DHT22;27639;48.674;9.242;2023-11-18T15:15:22;11.80;56.80
21502;DHT22;27639;48.674;9.242;2023-11-18T15:17:48;11.80;56.80
21502;DHT22;27639;48.674;9.242;2023-11-18T15:20:17;11.80;56.80
21502;DHT22;27639;48.674;9.242;2023-11-18T15:22:44;11.70;56.80
21502;DHT22;27639;48.674;9.242;2023-11-18T15:25:11;11.70;56.70
21502;DHT22;27639;48.674;9.242;2023-11-18T15:27:42;11.70;56.70
21502;DHT22;27639;48.674;9.242;2023-11-18T15:30:10;11.70;56.70
21502;DHT22;27639;48.674;9.242;2023-11-18T15:32:39;11.60;56.60
21502;DHT22;27639;48.674;9.242;2023-11-18T15:35:06;11.60;56.60
21502;DHT22;27639;48.674;9.242;2023-11-18T15:37:35;11.70;56.70
21502;DHT22;27639;48.674;9.242;2023-11-18T15:40:01;11.60;56.60
21502;DHT22;27639;48.674;9.242;2023-11-18T15:42:35;11.60;56.60
21502;DHT22;27639;48.674;9.242;2023-11-18T15:45:02;11.50;56.50
21502;DHT22;27639;48.674;9.242;2023-11-18T15:47:27;11.60;56.50
21502;DHT22;27639;48.674;9.242;2023-11-18T15:49:53;11.60;56.40
21502;DHT22;27639;48.674;9.242;2023-11-18T15:52:19;11.60;56.40
21502;DHT22;27639;48.674;9.242;2023-11-18T15:54:44;11.60;56.30
21502;DHT22;27639;48.674;9.242;2023-11-18T15:57:10;11.60;56.30
21502;DHT22;27639;48.674;9.242;2023-11-18T15:59:35;11.60;56.30
21502;DHT22;27639;48.674;9.242;2023-11-18T16:02:01;11.50;56.20
21502;DHT22;27639;48.674;9.242;2023-11-18T16:04:29;11.50;56.20
21502;DHT22;27639;48.674;9.242;2023-11-18T16:06:54;11.60;56.10
21502;DHT22;27639;48.674;9.242;2023-11-18T16:09:20;11.60;56.10
21502;DHT22;27639;48.674;9.242;2023-11-18T16:11:46;11.50;56.00
21502;DHT22;27639;48.674;9.242;2023-11-18T16:14:14;11.50;55.80
21502;DHT22;27639;48.674;9.242;2023-11-18T16:16:42;11.50;55.70
21502;DHT22;27639;48.674;9.242;2023-11-18T16:19:07;11.50;55.60